createdAt,value
2018-05-25T03:02:37.878Z,10.87
2018-05-25T03:05:05.917Z,11.30
2018-05-25T03:07:33.980Z,11.30
2018-05-25T03:10:02.201Z,11.60
2018-05-25T03:12:30.259Z,10.43
2018-05-25T03:14:58.306Z,9.43
2018-05-25T03:17:26.613Z,9.17
2018-05-25T03:19:54.658Z,10.20
2018-05-25T03:22:22.701Z,9.87
2018-05-25T03:24:50.920Z,10.07
2018-05-25T03:27:18.965Z,9.73
2018-05-25T03:29:47.013Z,12.20
2018-05-25T03:32:15.118Z,7.93
2018-05-25T03:34:43.153Z,8.50
2018-05-25T03:37:11.197Z,9.77
2018-05-25T03:39:39.273Z,9.30
2018-05-25T03:42:07.317Z,8.47
2018-05-25T03:44:35.371Z,9.70
2018-05-25T03:47:03.798Z,9.97
2018-05-25T03:49:31.845Z,8.97
2018-05-25T03:51:59.897Z,8.20
2018-05-25T03:54:28.111Z,9.43
2018-05-25T03:56:56.146Z,7.57
2018-05-25T03:59:36.438Z,10.43
2018-05-25T04:02:04.498Z,8.60
2018-05-25T04:04:32.844Z,8.03
2018-05-25T04:07:01.264Z,7.47
2018-05-25T04:09:29.314Z,8.53
2018-05-25T04:11:57.366Z,6.90
2018-05-25T04:14:26.404Z,11.27
2018-05-25T04:16:54.435Z,8.97
2018-05-25T04:19:22.468Z,6.93
2018-05-25T04:21:50.553Z,8.40
2018-05-25T04:24:18.597Z,7.70
2018-05-25T04:26:46.680Z,7.00
2018-05-25T04:29:14.947Z,7.93
2018-05-25T04:31:43.047Z,6.47
2018-05-25T04:34:11.116Z,8.33
2018-05-25T04:36:39.374Z,6.47
2018-05-25T04:39:07.432Z,6.13
2018-05-25T04:41:35.468Z,6.60
2018-05-25T04:44:03.669Z,9.27
2018-05-25T04:46:31.721Z,7.80
2018-05-25T04:48:59.757Z,6.63
2018-05-25T04:51:27.840Z,7.60
2018-05-25T04:53:56.661Z,6.43
2018-05-25T04:56:24.718Z,6.23
2018-05-25T04:58:52.831Z,8.00
2018-05-25T18:02:39.827Z,19.00
2018-05-25T18:05:07.872Z,34.10
2018-05-25T18:07:35.912Z,27.90
2018-05-25T18:10:05.824Z,27.20
2018-05-25T18:12:33.860Z,35.27
2018-05-25T18:15:01.920Z,43.57
2018-05-25T18:17:30.179Z,36.63
2018-05-25T18:19:59.030Z,34.40
2018-05-25T18:22:27.072Z,65.77
2018-05-25T18:24:56.024Z,28.83
2018-05-25T18:27:24.073Z,29.57
2018-05-25T18:29:52.120Z,29.67
2018-05-25T18:32:20.383Z,54.00
2018-05-25T18:34:48.420Z,25.60
2018-05-25T18:37:16.461Z,28.63
2018-05-25T18:39:44.969Z,12.73
2018-05-25T18:42:13.008Z,20.00
2018-05-25T18:44:41.068Z,24.97
2018-05-25T18:47:09.371Z,21.87
2018-05-25T18:49:37.423Z,23.50
2018-05-25T18:52:06.292Z,18.43
2018-05-25T18:54:34.433Z,23.23
2018-05-25T18:57:02.481Z,30.43
2018-05-25T18:59:30.521Z,23.87
2018-05-25T19:01:58.861Z,34.77
2018-05-25T19:04:27.203Z,21.07
2018-05-25T19:06:55.255Z,17.57
2018-05-25T19:09:24.286Z,59.00
2018-05-25T19:11:52.347Z,46.20
2018-05-25T19:14:20.408Z,48.37
2018-05-25T19:16:48.494Z,33.53
2018-05-25T19:19:16.533Z,33.93
2018-05-25T19:21:45.393Z,32.67
2018-05-25T19:24:14.564Z,25.93
2018-05-25T19:26:42.626Z,23.60
2018-05-25T19:29:10.706Z,21.57
2018-05-25T19:31:38.795Z,20.70
2018-05-25T19:34:06.868Z,21.17
2018-05-25T19:36:34.921Z,17.00
2018-05-25T19:39:03.309Z,12.17
2018-05-25T19:41:31.382Z,13.53
2018-05-25T19:43:59.436Z,14.33
2018-05-25T19:46:27.683Z,16.57
2018-05-25T19:48:56.522Z,16.77
2018-05-25T19:51:24.658Z,17.13
2018-05-25T19:53:52.745Z,17.50
2018-05-25T19:56:20.878Z,15.77
2018-05-25T19:58:48.961Z,13.27
